Time;durP1;ratioP1;P1;durP2;ratioP2;P2;SDS_P1;SDS_P2;PMS_P1;PMS_P2;Temp;Humidity;BMP_temperature;BMP_pressure;BME280_temperature;BME280_humidity;BME280_pressure;Samples;Min_cycle;Max_cycle;Signal;HPM_P1;HPM_P2
2022/06/09 00:00:30;;;;;;;61.22;28.88;;;;;;;-145.76;100.00;65039.31;4905283;28;20053;-73
2022/06/09 00:02:58;;;;;;;74.97;30.75;;;;;;;-145.76;100.00;65039.31;4919889;28;20116;-74
2022/06/09 00:05:24;;;;;;;64.38;30.13;;;;;;;-145.76;100.00;65039.31;4901741;28;20044;-73
2022/06/09 00:07:50;;;;;;;66.78;30.40;;;;;;;-145.76;100.00;65039.31;4916935;28;20049;-74
2022/06/09 00:10:19;;;;;;;69.60;28.92;;;;;;;-145.76;100.00;65039.31;4918666;28;20169;-74
2022/06/09 00:12:45;;;;;;;61.42;28.95;;;;;;;-145.76;100.00;65039.31;4905552;28;20133;-73
2022/06/09 00:15:13;;;;;;;75.13;30.77;;;;;;;-145.76;100.00;65039.31;4920285;28;20050;-74
2022/06/09 00:17:39;;;;;;;66.78;27.70;;;;;;;-145.76;100.00;65039.31;4899806;28;20137;-74
2022/06/09 00:20:06;;;;;;;61.72;27.75;;;;;;;-145.76;100.00;65039.31;4918450;28;20049;-73
2022/06/09 00:22:31;;;;;;;59.15;28.30;;;;;;;-145.76;100.00;65039.31;4903232;28;20034;-74
2022/06/09 00:24:57;;;;;;;68.68;27.08;;;;;;;-145.76;100.00;65039.31;4917455;28;20136;-73
2022/06/09 00:27:23;;;;;;;63.97;27.50;;;;;;;-145.76;100.00;65039.31;4901176;28;20062;-74
2022/06/09 00:29:49;;;;;;;65.68;28.58;;;;;;;-145.76;100.00;65039.31;4917061;28;20374;-74
2022/06/09 00:32:14;;;;;;;65.82;28.33;;;;;;;-145.76;100.00;65039.31;4921171;28;20046;-74
2022/06/09 00:34:40;;;;;;;56.55;26.42;;;;;;;-145.76;100.00;65039.31;4902184;28;20269;-73
2022/06/09 00:37:05;;;;;;;76.47;27.73;;;;;;;-145.76;100.00;65039.31;4916710;28;20038;-73
2022/06/09 00:39:30;;;;;;;70.68;27.80;;;;;;;-145.76;100.00;65039.31;4903366;28;20041;-74
2022/06/09 00:41:56;;;;;;;75.88;27.88;;;;;;;-145.76;100.00;65039.31;4915155;28;20037;-73
2022/06/09 00:44:24;;;;;;;72.85;28.45;;;;;;;-145.76;100.00;65039.31;4902866;28;20042;-73
2022/06/09 00:46:54;;;;;;;68.18;27.20;;;;;;;-145.76;100.00;65039.31;4919879;28;20040;-73
2022/06/09 00:49:27;;;;;;;67.82;26.90;;;;;;;-145.76;100.00;65039.31;4903367;28;20089;-74
2022/06/09 00:51:54;;;;;;;;;;;;;;;-145.76;100.00;65039.31;4916997;28;20058;-73
2022/06/09 00:54:23;;;;;;;69.70;28.17;;;;;;;-145.76;100.00;65039.31;4919339;28;20035;-73
2022/06/09 00:56:52;;;;;;;69.18;29.20;;;;;;;-145.76;100.00;65039.31;4896390;28;20587;-73
2022/06/09 00:59:20;;;;;;;86.70;30.55;;;;;;;-145.76;100.00;65039.31;4919605;28;20056;-73
2022/06/09 01:01:45;;;;;;;65.57;28.00;;;;;;;-145.76;100.00;65039.31;4899061;28;20041;-74
2022/06/09 01:04:12;;;;;;;63.30;26.45;;;;;;;-145.76;100.00;65039.31;4934410;28;20026;-74
2022/06/09 01:06:45;;;;;;;75.70;29.27;;;;;;;-145.76;100.00;65039.31;4905370;28;20057;-73
2022/06/09 01:09:17;;;;;;;81.47;29.70;;;;;;;-145.76;100.00;65039.31;4920256;28;20049;-73
2022/06/09 01:11:46;;;;;;;71.72;29.60;;;;;;;-145.76;100.00;65039.31;4904061;28;20640;-74
2022/06/09 01:14:13;;;;;;;62.42;28.15;;;;;;;-145.76;100.00;65039.31;4918389;28;20437;-74
2022/06/09 01:17:19;;;;;;;73.63;29.08;;;;;;;-145.76;100.00;65039.31;4916670;28;20037;-73
2022/06/09 01:20:04;;;;;;;80.75;28.80;;;;;;;-145.76;100.00;65039.31;4917704;28;20037;-73
2022/06/09 01:22:57;;;;;;;84.18;29.52;;;;;;;-145.76;100.00;65039.31;4914972;28;22618;-73
2022/06/09 01:25:38;;;;;;;73.68;30.45;;;;;;;-145.76;100.00;65039.31;4920807;28;20054;-73
2022/06/09 01:28:28;;;;;;;87.95;32.85;;;;;;;-145.76;100.00;65039.31;4913195;28;20437;-72
2022/06/09 01:30:58;;;;;;;81.18;32.45;;;;;;;-145.76;100.00;65039.31;4916305;28;20149;-72
2022/06/09 01:33:41;;;;;;;77.32;31.58;;;;;;;-145.76;100.00;65039.31;4915840;28;20042;-73
2022/06/09 01:36:09;;;;;;;;;;;;;;;-145.76;100.00;65039.31;4919458;28;20042;-72
2022/06/09 01:38:56;;;;;;;73.05;30.83;;;;;;;-145.76;100.00;65039.31;4932275;28;19918;-73
2022/06/09 01:41:23;;;;;;;78.10;33.10;;;;;;;-145.76;100.00;65039.31;4901593;28;20041;-73
2022/06/09 01:43:49;;;;;;;73.60;33.42;;;;;;;-145.76;100.00;65039.31;4914964;28;20045;-73
2022/06/09 01:46:21;;;;;;;81.80;33.97;;;;;;;-145.76;100.00;65039.31;4904751;28;20130;-73
2022/06/09 01:48:48;;;;;;;76.50;34.03;;;;;;;-145.76;100.00;65039.31;4918726;28;20054;-73
2022/06/09 01:51:16;;;;;;;83.22;31.90;;;;;;;-145.76;100.00;65039.31;4906239;28;20050;-73
2022/06/09 01:53:45;;;;;;;78.88;32.40;;;;;;;-145.76;100.00;65039.31;4922144;28;20030;-73
2022/06/09 01:56:28;;;;;;;76.95;34.28;;;;;;;-145.76;100.00;65039.31;4902856;28;20396;-73
2022/06/09 01:58:57;;;;;;;82.10;33.67;;;;;;;-145.76;100.00;65039.31;4920384;28;20033;-73
2022/06/09 02:01:26;;;;;;;88.85;34.70;;;;;;;-145.76;100.00;65039.31;4916114;28;20041;-74
2022/06/09 02:03:56;;;;;;;94.78;35.17;;;;;;;-145.76;100.00;65039.31;4919524;28;20085;-73
2022/06/09 02:06:22;;;;;;;84.45;35.47;;;;;;;-145.76;100.00;65039.31;4920226;28;20437;-74
2022/06/09 02:08:48;;;;;;;82.63;34.63;;;;;;;-145.76;100.00;65039.31;4907747;28;20050;-73
2022/06/09 02:11:13;;;;;;;83.03;35.08;;;;;;;-145.76;100.00;65039.31;4922563;28;27569;-73
2022/06/09 02:13:42;;;;;;;86.38;35.22;;;;;;;-145.76;100.00;65039.31;4907351;28;21389;-73
2022/06/09 02:16:11;;;;;;;94.47;35.65;;;;;;;-145.76;100.00;65039.31;4921526;28;20038;-73
2022/06/09 02:18:42;;;;;;;81.70;36.83;;;;;;;-145.76;100.00;65039.31;4904276;28;20099;-73
2022/06/09 02:21:33;;;;;;;92.60;36.50;;;;;;;-145.76;100.00;65039.31;4937030;28;20058;-73
2022/06/09 02:23:59;;;;;;;82.72;35.50;;;;;;;-145.76;100.00;65039.31;4905394;28;21120;-74
2022/06/09 02:26:25;;;;;;;79.80;36.90;;;;;;;-145.76;100.00;65039.31;4922257;28;20033;-74
2022/06/09 02:28:51;;;;;;;81.72;38.13;;;;;;;-145.76;100.00;65039.31;4921745;28;20045;-74
2022/06/09 02:31:18;;;;;;;84.05;35.45;;;;;;;-145.76;100.00;65039.31;4902878;28;20164;-74
2022/06/09 02:33:43;;;;;;;79.40;35.97;;;;;;;-145.76;100.00;65039.31;4927271;28;20030;-74
2022/06/09 02:36:09;;;;;;;71.90;37.03;;;;;;;-145.76;100.00;65039.31;4924956;28;20115;-74
2022/06/09 02:38:34;;;;;;;86.85;36.67;;;;;;;-145.76;100.00;65039.31;4937307;28;20121;-73
2022/06/09 02:41:00;;;;;;;91.20;38.17;;;;;;;-145.76;100.00;65039.31;4905379;28;20048;-74
2022/06/09 02:43:26;;;;;;;89.13;38.17;;;;;;;-145.76;100.00;65039.31;4917910;28;20034;-74
2022/06/09 02:45:51;;;;;;;80.20;38.30;;;;;;;-145.76;100.00;65039.31;4904806;28;20030;-71
2022/06/09 02:48:17;;;;;;;79.82;36.88;;;;;;;-145.76;100.00;65039.31;4919174;28;20164;-73
2022/06/09 02:50:44;;;;;;;86.53;39.20;;;;;;;-145.76;100.00;65039.31;4920804;28;20034;-73
2022/06/09 02:53:10;;;;;;;90.63;38.17;;;;;;;-145.76;100.00;65039.31;4904431;28;20076;-73
2022/06/09 02:55:36;;;;;;;74.93;38.15;;;;;;;-145.76;100.00;65039.31;4918972;28;20034;-73
2022/06/09 02:58:01;;;;;;;93.35;38.97;;;;;;;-145.76;100.00;65039.31;4898821;28;20053;-74
2022/06/09 03:00:27;;;;;;;84.68;37.97;;;;;;;-145.76;100.00;65039.31;4912776;28;20068;-73
2022/06/09 03:02:59;;;;;;;81.35;38.17;;;;;;;-145.76;100.00;65039.31;4905161;28;20516;-75
2022/06/09 03:05:26;;;;;;;75.28;37.13;;;;;;;-145.76;100.00;65039.31;4918929;28;20030;-75
2022/06/09 03:07:51;;;;;;;77.22;38.60;;;;;;;-145.76;100.00;65039.31;4910244;28;20034;-74
2022/06/09 03:10:17;;;;;;;87.20;39.33;;;;;;;-145.76;100.00;65039.31;4907396;28;20054;-74
2022/06/09 03:12:43;;;;;;;87.20;37.63;;;;;;;-145.76;100.00;65039.31;4915794;28;20050;-73
2022/06/09 03:15:10;;;;;;;86.65;40.55;;;;;;;-145.76;100.00;65039.31;4897073;28;20113;-74
2022/06/09 03:17:36;;;;;;;85.30;37.38;;;;;;;-145.76;100.00;65039.31;4914014;28;20037;-74
2022/06/09 03:20:04;;;;;;;83.80;38.38;;;;;;;-145.76;100.00;65039.31;4882575;28;20053;-74
2022/06/09 03:22:30;;;;;;;73.25;36.25;;;;;;;-145.76;100.00;65039.31;4929493;28;20085;-74
2022/06/09 03:24:56;;;;;;;88.03;38.53;;;;;;;-145.76;100.00;65039.31;4904815;28;21481;-73
2022/06/09 03:27:21;;;;;;;79.80;37.53;;;;;;;-145.76;100.00;65039.31;4919172;28;20042;-73
2022/06/09 03:29:47;;;;;;;98.75;39.85;;;;;;;-145.76;100.00;65039.31;4916511;28;20626;-73
2022/06/09 03:32:12;;;;;;;96.90;39.92;;;;;;;-145.76;100.00;65039.31;4904419;28;20133;-71
2022/06/09 03:34:38;;;;;;;101.15;40.40;;;;;;;-145.76;100.00;65039.31;4921888;28;20430;-71
2022/06/09 03:37:03;;;;;;;98.60;42.72;;;;;;;-145.76;100.00;65039.31;4907391;28;20045;-71
2022/06/09 03:39:29;;;;;;;96.38;40.78;;;;;;;-145.76;100.00;65039.31;4922209;28;20026;-71
2022/06/09 03:41:54;;;;;;;92.32;40.85;;;;;;;-145.76;100.00;65039.31;4899110;28;20053;-72
2022/06/09 03:44:20;;;;;;;94.38;42.42;;;;;;;-145.76;100.00;65039.31;4920795;28;20029;-72
2022/06/09 03:46:45;;;;;;;93.45;44.03;;;;;;;-145.76;100.00;65039.31;4916950;28;20553;-71
2022/06/09 03:49:11;;;;;;;105.07;43.63;;;;;;;-145.76;100.00;65039.31;4906174;28;20497;-71
2022/06/09 03:51:36;;;;;;;97.43;43.13;;;;;;;-145.76;100.00;65039.31;4921133;28;20090;-71
2022/06/09 03:54:02;;;;;;;99.18;40.47;;;;;;;-145.76;100.00;65039.31;4904786;28;20053;-72
2022/06/09 03:56:27;;;;;;;97.07;41.50;;;;;;;-145.76;100.00;65039.31;4931141;28;20034;-72
2022/06/09 03:58:53;;;;;;;80.38;39.58;;;;;;;-145.76;100.00;65039.31;4907669;28;20355;-72
2022/06/09 04:01:18;;;;;;;89.40;38.92;;;;;;;-145.76;100.00;65039.31;4919936;28;23952;-73
2022/06/09 04:03:45;;;;;;;88.85;42.55;;;;;;;-145.76;100.00;65039.31;4904643;28;20065;-72
2022/06/09 04:06:19;;;;;;;97.22;41.55;;;;;;;-145.76;100.00;65039.31;4917563;28;20221;-71
2022/06/09 04:08:45;;;;;;;101.45;40.47;;;;;;;-145.76;100.00;65039.31;4898705;28;20084;-72
2022/06/09 04:11:11;;;;;;;81.70;40.85;;;;;;;-145.76;100.00;65039.31;4901452;28;20046;-71
2022/06/09 04:13:37;;;;;;;87.38;42.20;;;;;;;-145.76;100.00;65039.31;4918589;28;20069;-72
2022/06/09 04:16:12;;;;;;;94.60;42.38;;;;;;;-145.76;100.00;65039.31;4906149;28;20066;-72
2022/06/09 04:18:37;;;;;;;82.70;40.78;;;;;;;-145.76;100.00;65039.31;4933843;28;21243;-72
2022/06/09 04:21:03;;;;;;;92.70;41.22;;;;;;;-145.76;100.00;65039.31;4907209;28;20053;-72
2022/06/09 04:23:28;;;;;;;90.97;39.90;;;;;;;-145.76;100.00;65039.31;4920648;28;20140;-72
2022/06/09 04:25:54;;;;;;;74.38;39.45;;;;;;;-145.76;100.00;65039.31;4884278;28;20502;-72
2022/06/09 04:28:19;;;;;;;78.97;39.97;;;;;;;-145.76;100.00;65039.31;4918234;28;20561;-71
2022/06/09 04:30:46;;;;;;;80.50;38.78;;;;;;;-145.76;100.00;65039.31;4909125;28;20043;-71
2022/06/09 04:33:12;;;;;;;74.95;40.92;;;;;;;-145.76;100.00;65039.31;4892282;28;22616;-71
2022/06/09 04:35:37;;;;;;;77.28;38.42;;;;;;;-145.76;100.00;65039.31;4898147;28;20037;-71
2022/06/09 04:38:03;;;;;;;66.22;38.72;;;;;;;-145.76;100.00;65039.31;4894768;28;21452;-73
2022/06/09 04:40:40;;;;;;;62.67;38.03;;;;;;;-145.76;100.00;65039.31;4913101;28;20096;-73
2022/06/09 04:43:09;;;;;;;72.22;39.47;;;;;;;-145.76;100.00;65039.31;4881922;28;20046;-72
2022/06/09 04:45:36;;;;;;;69.60;40.08;;;;;;;-145.76;100.00;65039.31;4895606;28;20134;-72
2022/06/09 04:48:02;;;;;;;62.33;38.13;;;;;;;-145.76;100.00;65039.31;4902451;28;20096;-72
2022/06/09 04:50:28;;;;;;;69.35;39.28;;;;;;;-145.76;100.00;65039.31;4912856;28;20034;-71
2022/06/09 04:52:53;;;;;;;62.97;36.03;;;;;;;-145.76;100.00;65039.31;4913538;28;20050;-71
2022/06/09 04:55:18;;;;;;;65.28;37.85;;;;;;;-145.76;100.00;65039.31;4903357;28;20056;-71
2022/06/09 04:57:44;;;;;;;61.80;37.17;;;;;;;-145.76;100.00;65039.31;4915034;28;20038;-71
2022/06/09 05:00:11;;;;;;;54.70;35.75;;;;;;;-145.76;100.00;65039.31;4885464;28;20211;-72
2022/06/09 05:02:37;;;;;;;65.32;36.05;;;;;;;-145.76;100.00;65039.31;4916380;28;20125;-72
2022/06/09 05:05:03;;;;;;;52.63;33.67;;;;;;;-145.76;100.00;65039.31;4903925;28;20132;-72
2022/06/09 05:07:28;;;;;;;54.95;34.20;;;;;;;-145.76;100.00;65039.31;4918693;28;20037;-72
2022/06/09 05:09:54;;;;;;;54.95;34.88;;;;;;;-145.76;100.00;65039.31;4918996;28;20030;-72
2022/06/09 05:12:20;;;;;;;48.25;32.90;;;;;;;-145.76;100.00;65039.31;4904109;28;20152;-72
2022/06/09 05:14:46;;;;;;;47.58;33.38;;;;;;;-145.76;100.00;65039.31;4918236;28;20038;-72
2022/06/09 05:17:12;;;;;;;53.83;33.97;;;;;;;-145.76;100.00;65039.31;4870699;28;24723;-72
2022/06/09 05:19:38;;;;;;;48.08;32.35;;;;;;;-145.76;100.00;65039.31;4918920;28;20034;-72
2022/06/09 05:22:03;;;;;;;48.83;32.75;;;;;;;-145.76;100.00;65039.31;4905571;28;20053;-72
2022/06/09 05:24:29;;;;;;;49.08;32.42;;;;;;;-145.76;100.00;65039.31;4921479;28;20070;-71
2022/06/09 05:26:54;;;;;;;52.30;34.00;;;;;;;-145.76;100.00;65039.31;4914236;28;20180;-72
2022/06/09 05:29:21;;;;;;;44.97;31.95;;;;;;;-145.76;100.00;65039.31;4911474;28;20045;-71
2022/06/09 05:31:46;;;;;;;52.95;34.70;;;;;;;-145.76;100.00;65039.31;4923545;28;20057;-72
2022/06/09 05:34:12;;;;;;;47.33;32.95;;;;;;;-145.76;100.00;65039.31;4908965;28;23705;-72
2022/06/09 05:36:38;;;;;;;50.13;33.65;;;;;;;-145.76;100.00;65039.31;4921524;28;24903;-72
2022/06/09 05:47:19;;;;;;;42.30;31.60;;;;;;;-145.76;100.00;65039.31;4918000;28;20537;-71
2022/06/09 05:49:50;;;;;;;42.63;29.88;;;;;;;-145.76;100.00;65039.31;4907216;28;20153;-72
2022/06/09 05:52:17;;;;;;;44.50;31.50;;;;;;;-145.76;100.00;65039.31;4936794;28;20168;-72
2022/06/09 05:54:43;;;;;;;42.05;32.80;;;;;;;-145.76;100.00;65039.31;4913515;28;23529;-72
2022/06/09 05:57:08;;;;;;;47.03;32.65;;;;;;;-145.76;100.00;65039.31;4911620;28;20052;-71
2022/06/09 05:59:34;;;;;;;38.00;28.95;;;;;;;-145.76;100.00;65039.31;4902858;28;20648;-74
2022/06/09 06:02:00;;;;;;;38.08;28.35;;;;;;;-145.76;100.00;65039.31;4918129;28;20181;-74
2022/06/09 06:04:26;;;;;;;38.45;26.73;;;;;;;-145.76;100.00;65039.31;4921284;28;20033;-74
2022/06/09 06:06:51;;;;;;;37.42;27.10;;;;;;;-145.76;100.00;65039.31;4902646;28;20137;-74
2022/06/09 06:09:19;;;;;;;39.90;27.88;;;;;;;-145.76;100.00;65039.31;4921215;28;20608;-74
2022/06/09 06:11:47;;;;;;;37.35;25.92;;;;;;;-145.76;100.00;65039.31;4901636;28;20181;-75
2022/06/09 06:14:12;;;;;;;30.73;25.88;;;;;;;-145.76;100.00;65039.31;4920757;28;20144;-74
2022/06/09 06:16:39;;;;;;;36.85;27.73;;;;;;;-145.76;100.00;65039.31;4920084;28;20034;-74
2022/06/09 06:19:06;;;;;;;41.10;28.77;;;;;;;-145.76;100.00;65039.31;4903875;28;20093;-73
2022/06/09 06:21:32;;;;;;;37.88;28.52;;;;;;;-145.76;100.00;65039.31;4920577;28;20056;-75
2022/06/09 06:23:57;;;;;;;41.50;30.30;;;;;;;-145.76;100.00;65039.31;4922591;28;24585;-75
2022/06/09 06:26:23;;;;;;;36.30;26.02;;;;;;;-145.76;100.00;65039.31;4923083;28;20045;-75
2022/06/09 06:28:48;;;;;;;38.05;28.45;;;;;;;-145.76;100.00;65039.31;4907742;28;20169;-75
2022/06/09 06:31:14;;;;;;;35.67;31.15;;;;;;;-145.76;100.00;65039.31;4921389;28;20046;-75
2022/06/09 06:33:40;;;;;;;37.92;30.00;;;;;;;-145.76;100.00;65039.31;4907491;28;20168;-75
2022/06/09 06:36:06;;;;;;;34.90;28.98;;;;;;;-145.76;100.00;65039.31;4921255;28;20042;-74
2022/06/09 06:38:32;;;;;;;34.17;27.63;;;;;;;-145.76;100.00;65039.31;4921369;28;20030;-75
2022/06/09 06:40:57;;;;;;;32.40;28.25;;;;;;;-145.76;100.00;65039.31;4885004;28;20092;-75
2022/06/09 06:43:23;;;;;;;29.42;25.98;;;;;;;-145.76;100.00;65039.31;4933388;28;20084;-75
2022/06/09 06:45:48;;;;;;;29.85;26.45;;;;;;;-145.76;100.00;65039.31;4906435;28;20053;-75
2022/06/09 06:48:14;;;;;;;26.05;21.80;;;;;;;-145.76;100.00;65039.31;4922173;28;20038;-74
2022/06/09 06:50:40;;;;;;;24.52;20.73;;;;;;;-145.76;100.00;65039.31;4908397;28;20037;-74
2022/06/09 06:53:05;;;;;;;27.35;22.02;;;;;;;-145.76;100.00;65039.31;4915198;28;20116;-74
2022/06/09 06:55:31;;;;;;;23.05;20.63;;;;;;;-145.76;100.00;65039.31;4916971;28;20034;-73
2022/06/09 06:57:56;;;;;;;20.15;18.10;;;;;;;-145.76;100.00;65039.31;4904054;28;20674;-73
2022/06/09 07:00:23;;;;;;;18.88;16.75;;;;;;;-145.76;100.00;65039.31;4920681;28;20034;-73
2022/06/09 07:02:49;;;;;;;19.65;17.65;;;;;;;-145.76;100.00;65039.31;4905998;28;23625;-73
2022/06/09 07:05:16;;;;;;;20.27;18.17;;;;;;;-145.76;100.00;65039.31;4921527;28;20034;-73
2022/06/09 07:07:41;;;;;;;19.70;17.73;;;;;;;-145.76;100.00;65039.31;4904045;28;20038;-73
2022/06/09 07:10:08;;;;;;;20.48;18.38;;;;;;;-145.76;100.00;65039.31;4919849;28;20044;-73
2022/06/09 07:12:34;;;;;;;21.15;18.38;;;;;;;-145.76;100.00;65039.31;4906147;28;20282;-73
2022/06/09 07:14:59;;;;;;;19.50;17.60;;;;;;;-145.76;100.00;65039.31;4921378;28;20039;-73
2022/06/09 07:17:25;;;;;;;20.08;17.88;;;;;;;-145.76;100.00;65039.31;4918528;28;20029;-73
2022/06/09 07:19:51;;;;;;;19.60;17.65;;;;;;;-145.76;100.00;65039.31;4904747;28;20141;-73
2022/06/09 07:22:17;;;;;;;19.70;17.48;;;;;;;-145.76;100.00;65039.31;4916418;28;20113;-73
2022/06/09 07:24:43;;;;;;;18.48;15.77;;;;;;;-145.76;100.00;65039.31;4920490;28;20481;-73
2022/06/09 07:27:08;;;;;;;17.48;15.63;;;;;;;-145.76;100.00;65039.31;4909525;28;20374;-73
2022/06/09 07:29:34;;;;;;;15.70;14.00;;;;;;;-145.76;100.00;65039.31;4904112;28;20088;-73
2022/06/09 07:32:00;;;;;;;15.60;14.13;;;;;;;-145.76;100.00;65039.31;4921222;28;20215;-74
2022/06/09 07:34:26;;;;;;;15.23;13.70;;;;;;;-145.76;100.00;65039.31;4914459;28;20026;-74
2022/06/09 07:36:51;;;;;;;18.48;12.93;;;;;;;-145.76;100.00;65039.31;4910771;28;20076;-74
2022/06/09 07:39:17;;;;;;;13.65;11.95;;;;;;;-145.76;100.00;65039.31;4920497;28;20455;-74
2022/06/09 07:41:42;;;;;;;15.45;13.05;;;;;;;-145.76;100.00;65039.31;4902346;28;20585;-74
2022/06/09 07:44:09;;;;;;;15.93;13.68;;;;;;;-145.76;100.00;65039.31;4935814;28;20497;-74
2022/06/09 07:46:35;;;;;;;16.48;11.68;;;;;;;-145.76;100.00;65039.31;4900603;28;20129;-74
2022/06/09 07:49:02;;;;;;;12.55;11.13;;;;;;;-145.76;100.00;65039.31;4920827;28;20029;-74
2022/06/09 07:51:29;;;;;;;15.32;10.40;;;;;;;-145.76;100.00;65039.31;4905123;28;20045;-73
2022/06/09 07:53:55;;;;;;;10.93;9.23;;;;;;;-145.76;100.00;65039.31;4918495;28;20141;-72
2022/06/09 07:56:21;;;;;;;12.55;8.88;;;;;;;-145.76;100.00;65039.31;4919376;28;20100;-73
2022/06/09 07:58:46;;;;;;;10.90;8.30;;;;;;;-145.76;100.00;65039.31;4906815;28;20046;-73
2022/06/09 08:01:12;;;;;;;9.18;7.38;;;;;;;-145.76;100.00;65039.31;4921751;28;20232;-74
2022/06/09 08:03:40;;;;;;;13.43;9.40;;;;;;;-145.76;100.00;65039.31;4903917;28;20069;-73
2022/06/09 08:06:06;;;;;;;10.38;8.45;;;;;;;-145.76;100.00;65039.31;4939755;28;20042;-73
2022/06/09 08:08:33;;;;;;;10.73;7.70;;;;;;;-145.76;100.00;65039.31;4904749;28;20029;-73
2022/06/09 08:10:58;;;;;;;9.68;6.63;;;;;;;-145.76;100.00;65039.31;4935938;28;20157;-73
2022/06/09 08:13:24;;;;;;;8.23;6.20;;;;;;;-145.76;100.00;65039.31;4917950;28;20050;-73
2022/06/09 08:15:49;;;;;;;9.18;6.18;;;;;;;-145.76;100.00;65039.31;4907843;28;20466;-74
2022/06/09 08:18:15;;;;;;;7.85;5.90;;;;;;;-145.76;100.00;65039.31;4915927;28;20034;-73
2022/06/09 08:20:42;;;;;;;8.40;3.97;;;;;;;-145.76;100.00;65039.31;4905215;28;20120;-73
2022/06/09 08:23:12;;;;;;;8.68;3.38;;;;;;;-145.76;100.00;65039.31;4917866;28;20244;-73
2022/06/09 08:25:39;;;;;;;5.40;3.63;;;;;;;-145.76;100.00;65039.31;4899185;28;20049;-73
2022/06/09 08:28:05;;;;;;;8.27;4.88;;;;;;;-145.76;100.00;65039.31;4918188;28;20074;-73
2022/06/09 08:30:32;;;;;;;6.25;3.63;;;;;;;-145.76;100.00;65039.31;4903569;28;21028;-73
2022/06/09 08:32:57;;;;;;;4.60;2.38;;;;;;;-145.76;100.00;65039.31;4918792;28;20046;-73
2022/06/09 08:35:24;;;;;;;6.10;2.38;;;;;;;-145.76;100.00;65039.31;4920055;28;20045;-73
2022/06/09 08:37:51;;;;;;;6.95;3.53;;;;;;;-145.76;100.00;65039.31;4904135;28;20045;-73
2022/06/09 08:40:27;;;;;;;4.93;2.13;;;;;;;-145.76;100.00;65039.31;4918529;28;20112;-73
2022/06/09 08:42:55;;;;;;;6.03;2.53;;;;;;;-145.76;100.00;65039.31;4901043;28;20075;-73
2022/06/09 08:45:31;;;;;;;5.03;2.25;;;;;;;-145.76;100.00;65039.31;4918679;28;20076;-72
2022/06/09 08:47:57;;;;;;;4.60;2.50;;;;;;;-145.76;100.00;65039.31;4916916;28;20231;-73
2022/06/09 08:50:27;;;;;;;5.68;2.75;;;;;;;-145.76;100.00;65039.31;4913377;28;20149;-74
2022/06/09 08:52:54;;;;;;;5.88;2.03;;;;;;;-145.76;100.00;65039.31;4900665;28;20057;-73
2022/06/09 08:55:38;;;;;;;6.28;2.90;;;;;;;-145.76;100.00;65039.31;4918828;28;20080;-73
2022/06/09 08:58:23;;;;;;;6.80;3.72;;;;;;;-145.76;100.00;65039.31;4904949;28;20504;-73
2022/06/09 09:01:17;;;;;;;5.10;2.28;;;;;;;-145.76;100.00;65039.31;4915716;28;20046;-72
2022/06/09 09:04:05;;;;;;;10.05;2.60;;;;;;;-145.76;100.00;65039.31;4917046;28;20100;-72
2022/06/09 09:07:25;;;;;;;6.32;1.65;;;;;;;-145.76;100.00;65039.31;4915477;28;20157;-72
2022/06/09 09:09:54;;;;;;;6.45;1.30;;;;;;;-145.76;100.00;65039.31;4914559;28;20042;-72
2022/06/09 09:12:45;;;;;;;5.03;1.42;;;;;;;-145.76;100.00;65039.31;4921652;28;20046;-71
2022/06/09 09:15:23;;;;;;;4.50;1.30;;;;;;;-145.76;100.00;65039.31;4904806;28;20121;-74
2022/06/09 09:18:13;;;;;;;9.95;1.52;;;;;;;-145.76;100.00;65039.31;4918257;28;20030;-74
2022/06/09 09:20:48;;;;;;;7.22;1.25;;;;;;;-145.76;100.00;65039.31;4899785;28;20049;-75
2022/06/09 09:23:46;;;;;;;5.50;1.80;;;;;;;-145.76;100.00;65039.31;4903374;28;20041;-73
2022/06/09 09:26:20;;;;;;;8.23;1.63;;;;;;;-145.76;100.00;65039.31;4901048;28;20694;-73
2022/06/09 09:28:50;;;;;;;8.55;1.40;;;;;;;-145.76;100.00;65039.31;4918793;28;20065;-74
2022/06/09 09:31:25;;;;;;;5.22;1.20;;;;;;;-145.76;100.00;65039.31;4896946;28;20034;-73
2022/06/09 09:33:50;;;;;;;5.15;1.38;;;;;;;-145.76;100.00;65039.31;4920431;28;20041;-74
2022/06/09 09:36:23;;;;;;;9.98;1.73;;;;;;;-145.76;100.00;65039.31;4921988;28;20046;-73
2022/06/09 09:38:49;;;;;;;;;;;;;;;-145.76;100.00;65039.31;4922608;28;20074;-73
2022/06/09 09:41:33;;;;;;;4.63;1.23;;;;;;;-145.76;100.00;65039.31;4921762;28;22751;-74
2022/06/09 09:44:00;;;;;;;5.90;1.27;;;;;;;-145.76;100.00;65039.31;4905844;28;20113;-74
2022/06/09 09:46:30;;;;;;;5.20;1.20;;;;;;;-145.76;100.00;65039.31;4923857;28;20128;-73
2022/06/09 09:49:01;;;;;;;4.63;1.10;;;;;;;-145.76;100.00;65039.31;4905022;28;23090;-73
2022/06/09 09:51:38;;;;;;;5.90;1.90;;;;;;;-145.76;100.00;65039.31;4939489;28;23726;-73
2022/06/09 09:54:19;;;;;;;5.78;2.08;;;;;;;-145.76;100.00;65039.31;4908990;28;20084;-74
2022/06/09 09:56:46;;;;;;;9.63;1.40;;;;;;;-145.76;100.00;65039.31;4922065;28;20029;-73
2022/06/09 09:59:22;;;;;;;5.07;1.40;;;;;;;-145.76;100.00;65039.31;4908408;28;20078;-73
2022/06/09 10:10:26;;;;;;;7.57;1.17;;;;;;;-145.76;100.00;65039.31;4898800;28;20628;-74
2022/06/09 10:12:54;;;;;;;5.78;1.58;;;;;;;-145.76;100.00;65039.31;4898277;28;20133;-73
2022/06/09 10:15:21;;;;;;;5.60;1.50;;;;;;;-145.76;100.00;65039.31;4932535;28;20148;-74
2022/06/09 10:17:59;;;;;;;6.30;1.58;;;;;;;-145.76;100.00;65039.31;4921934;28;20058;-73
2022/06/09 10:20:36;;;;;;;5.90;1.92;;;;;;;-145.76;100.00;65039.31;4921551;28;20087;-73
2022/06/09 10:23:09;;;;;;;6.72;1.40;;;;;;;-145.76;100.00;65039.31;4907880;28;20116;-73
2022/06/09 10:26:02;;;;;;;4.65;1.20;;;;;;;-145.76;100.00;65039.31;4921659;28;20054;-73
2022/06/09 10:28:43;;;;;;;7.22;1.23;;;;;;;-145.76;100.00;65039.31;4907839;28;20161;-73
2022/06/09 10:31:40;;;;;;;7.22;1.30;;;;;;;-145.76;100.00;65039.31;4917451;28;20096;-74
2022/06/09 10:34:17;;;;;;;6.65;1.75;;;;;;;-145.76;100.00;65039.31;4904546;28;20053;-74
2022/06/09 10:37:15;;;;;;;5.35;1.27;;;;;;;-145.76;100.00;65039.31;4923998;28;20044;-74
2022/06/09 10:39:49;;;;;;;7.35;1.50;;;;;;;-145.76;100.00;65039.31;4907864;28;20061;-74
2022/06/09 10:42:20;;;;;;;7.18;1.83;;;;;;;-145.76;100.00;65039.31;4925147;28;20053;-74
2022/06/09 10:44:53;;;;;;;10.57;1.58;;;;;;;-145.76;100.00;65039.31;4913675;28;20065;-74
2022/06/09 10:56:40;;;;;;;3.83;1.23;;;;;;;-145.76;100.00;65039.31;4904184;28;20062;-74
2022/06/09 10:59:33;;;;;;;4.38;1.30;;;;;;;-145.76;100.00;65039.31;4915966;28;20052;-75
2022/06/09 11:01:59;;;;;;;4.75;1.20;;;;;;;-145.76;100.00;65039.31;4891341;28;20057;-74
2022/06/09 11:04:27;;;;;;;5.22;0.98;;;;;;;-145.76;100.00;65039.31;4922405;28;21024;-73
2022/06/09 11:07:34;;;;;;;6.25;1.33;;;;;;;-145.76;100.00;65039.31;4906625;28;20217;-73
2022/06/09 11:10:12;;;;;;;7.35;1.15;;;;;;;-145.76;100.00;65039.31;4918045;28;20346;-74
2022/06/09 11:13:15;;;;;;;6.90;1.60;;;;;;;-145.76;100.00;65039.31;4904560;28;20089;-74
2022/06/09 11:16:00;;;;;;;;;;;;;;;-145.76;100.00;65039.31;4903733;28;20022;-72
2022/06/09 11:18:28;;;;;;;6.40;1.15;;;;;;;-145.76;100.00;65039.31;4889477;28;19926;-71
2022/06/09 11:21:15;;;;;;;4.60;1.25;;;;;;;-145.76;100.00;65039.31;4920361;28;20155;-72
2022/06/09 11:23:52;;;;;;;4.10;1.00;;;;;;;-145.76;100.00;65039.31;4905245;28;20057;-73
2022/06/09 11:26:39;;;;;;;5.60;1.10;;;;;;;-145.76;100.00;65039.31;4919146;28;20049;-73
2022/06/09 11:29:21;;;;;;;4.93;1.20;;;;;;;-145.76;100.00;65039.31;4904467;28;20731;-73
2022/06/09 11:32:06;;;;;;;6.07;1.50;;;;;;;-145.76;100.00;65039.31;4917309;28;20065;-73
2022/06/09 11:34:54;;;;;;;5.40;1.25;;;;;;;-145.76;100.00;65039.31;4917280;28;20038;-73
2022/06/09 11:37:29;;;;;;;6.80;1.58;;;;;;;-145.76;100.00;65039.31;4921509;28;20076;-72